sensor_id;sensor_type;location;lat;lon;timestamp;P1;durP1;ratioP1;P2;durP2;ratioP2
8480;SDS011;4277;51.354;6.740;2023-04-22T00:01:37;8.20;;;7.03;;
8480;SDS011;4277;51.354;6.740;2023-04-22T00:04:03;9.53;;;7.57;;
8480;SDS011;4277;51.354;6.740;2023-04-22T00:06:29;9.03;;;7.37;;
8480;SDS011;4277;51.354;6.740;2023-04-22T00:08:55;8.83;;;7.60;;
8480;SDS011;4277;51.354;6.740;2023-04-22T00:11:21;9.13;;;7.83;;
8480;SDS011;4277;51.354;6.740;2023-04-22T00:13:47;9.70;;;8.23;;
8480;SDS011;4277;51.354;6.740;2023-04-22T00:16:13;9.70;;;8.70;;
8480;SDS011;4277;51.354;6.740;2023-04-22T00:18:40;9.37;;;8.43;;
8480;SDS011;4277;51.354;6.740;2023-04-22T00:21:06;9.90;;;8.40;;
8480;SDS011;4277;51.354;6.740;2023-04-22T00:23:32;9.40;;;8.47;;
8480;SDS011;4277;51.354;6.740;2023-04-22T00:25:58;8.80;;;7.70;;
8480;SDS011;4277;51.354;6.740;2023-04-22T00:28:24;8.40;;;7.53;;
8480;SDS011;4277;51.354;6.740;2023-04-22T00:30:50;9.90;;;7.83;;
8480;SDS011;4277;51.354;6.740;2023-04-22T00:33:16;9.00;;;8.07;;
8480;SDS011;4277;51.354;6.740;2023-04-22T00:35:42;9.00;;;7.83;;
8480;SDS011;4277;51.354;6.740;2023-04-22T00:38:09;10.00;;;8.27;;
8480;SDS011;4277;51.354;6.740;2023-04-22T00:40:35;11.60;;;10.10;;
8480;SDS011;4277;51.354;6.740;2023-04-22T00:43:01;11.53;;;9.80;;
8480;SDS011;4277;51.354;6.740;2023-04-22T00:45:27;9.53;;;8.37;;
8480;SDS011;4277;51.354;6.740;2023-04-22T00:47:55;8.47;;;7.50;;
8480;SDS011;4277;51.354;6.740;2023-04-22T00:50:21;8.17;;;7.37;;
8480;SDS011;4277;51.354;6.740;2023-04-22T00:52:47;9.17;;;7.97;;
8480;SDS011;4277;51.354;6.740;2023-04-22T00:55:13;9.53;;;8.53;;
8480;SDS011;4277;51.354;6.740;2023-04-22T00:57:39;12.30;;;8.40;;
8480;SDS011;4277;51.354;6.740;2023-04-22T01:00:05;8.50;;;7.60;;
8480;SDS011;4277;51.354;6.740;2023-04-22T01:02:33;8.63;;;7.70;;
8480;SDS011;4277;51.354;6.740;2023-04-22T01:05:00;9.20;;;8.30;;
8480;SDS011;4277;51.354;6.740;2023-04-22T01:07:27;9.37;;;7.97;;
8480;SDS011;4277;51.354;6.740;2023-04-22T01:09:53;10.93;;;8.90;;
8480;SDS011;4277;51.354;6.740;2023-04-22T01:12:19;9.30;;;8.40;;
8480;SDS011;4277;51.354;6.740;2023-04-22T01:14:45;11.83;;;9.07;;
8480;SDS011;4277;51.354;6.740;2023-04-22T01:17:11;9.83;;;8.67;;
8480;SDS011;4277;51.354;6.740;2023-04-22T01:19:38;8.43;;;7.53;;
8480;SDS011;4277;51.354;6.740;2023-04-22T01:22:05;10.50;;;8.53;;
8480;SDS011;4277;51.354;6.740;2023-04-22T01:24:32;9.93;;;7.87;;
8480;SDS011;4277;51.354;6.740;2023-04-22T01:26:58;10.17;;;8.20;;
8480;SDS011;4277;51.354;6.740;2023-04-22T01:29:24;9.03;;;8.13;;
8480;SDS011;4277;51.354;6.740;2023-04-22T01:31:50;9.17;;;8.10;;
8480;SDS011;4277;51.354;6.740;2023-04-22T01:34:16;10.10;;;7.80;;
8480;SDS011;4277;51.354;6.740;2023-04-22T01:36:42;9.30;;;8.30;;
8480;SDS011;4277;51.354;6.740;2023-04-22T01:39:08;10.07;;;8.57;;
8480;SDS011;4277;51.354;6.740;2023-04-22T01:41:34;10.13;;;8.87;;
8480;SDS011;4277;51.354;6.740;2023-04-22T01:44:01;9.50;;;8.27;;
8480;SDS011;4277;51.354;6.740;2023-04-22T01:46:28;9.27;;;8.37;;
8480;SDS011;4277;51.354;6.740;2023-04-22T01:48:54;10.50;;;8.40;;
8480;SDS011;4277;51.354;6.740;2023-04-22T01:51:20;9.30;;;7.87;;
8480;SDS011;4277;51.354;6.740;2023-04-22T01:53:47;9.70;;;8.60;;
8480;SDS011;4277;51.354;6.740;2023-04-22T01:56:13;10.80;;;8.97;;
8480;SDS011;4277;51.354;6.740;2023-04-22T01:58:39;9.00;;;7.63;;
8480;SDS011;4277;51.354;6.740;2023-04-22T02:01:07;10.60;;;9.07;;
8480;SDS011;4277;51.354;6.740;2023-04-22T02:03:33;13.63;;;9.60;;
8480;SDS011;4277;51.354;6.740;2023-04-22T02:05:59;12.03;;;9.87;;
8480;SDS011;4277;51.354;6.740;2023-04-22T02:08:25;11.30;;;9.53;;
8480;SDS011;4277;51.354;6.740;2023-04-22T02:10:51;10.60;;;9.50;;
8480;SDS011;4277;51.354;6.740;2023-04-22T02:13:17;10.47;;;9.10;;
8480;SDS011;4277;51.354;6.740;2023-04-22T02:15:43;10.77;;;9.47;;
8480;SDS011;4277;51.354;6.740;2023-04-22T02:18:09;11.57;;;9.43;;
8480;SDS011;4277;51.354;6.740;2023-04-22T02:20:35;11.73;;;10.00;;
8480;SDS011;4277;51.354;6.740;2023-04-22T02:23:02;9.63;;;8.03;;
8480;SDS011;4277;51.354;6.740;2023-04-22T02:25:28;7.50;;;6.80;;
8480;SDS011;4277;51.354;6.740;2023-04-22T02:27:56;8.97;;;7.83;;
8480;SDS011;4277;51.354;6.740;2023-04-22T02:30:22;9.73;;;7.40;;
8480;SDS011;4277;51.354;6.740;2023-04-22T02:32:48;8.40;;;7.07;;
8480;SDS011;4277;51.354;6.740;2023-04-22T02:35:14;8.30;;;7.47;;
8480;SDS011;4277;51.354;6.740;2023-04-22T02:37:40;8.97;;;6.90;;
8480;SDS011;4277;51.354;6.740;2023-04-22T02:40:06;10.23;;;7.77;;
8480;SDS011;4277;51.354;6.740;2023-04-22T02:42:32;7.67;;;6.87;;
8480;SDS011;4277;51.354;6.740;2023-04-22T02:44:58;7.77;;;6.77;;
8480;SDS011;4277;51.354;6.740;2023-04-22T02:47:24;7.50;;;6.73;;
8480;SDS011;4277;51.354;6.740;2023-04-22T02:49:50;8.77;;;7.43;;
8480;SDS011;4277;51.354;6.740;2023-04-22T02:52:16;9.23;;;7.43;;
8480;SDS011;4277;51.354;6.740;2023-04-22T02:54:42;10.00;;;8.10;;
8480;SDS011;4277;51.354;6.740;2023-04-22T02:57:08;10.13;;;7.93;;
8480;SDS011;4277;51.354;6.740;2023-04-22T02:59:34;9.37;;;8.33;;
8480;SDS011;4277;51.354;6.740;2023-04-22T03:02:01;11.40;;;9.00;;
8480;SDS011;4277;51.354;6.740;2023-04-22T03:04:27;15.47;;;8.67;;
8480;SDS011;4277;51.354;6.740;2023-04-22T03:06:53;9.97;;;8.03;;
8480;SDS011;4277;51.354;6.740;2023-04-22T03:09:20;9.80;;;8.80;;
8480;SDS011;4277;51.354;6.740;2023-04-22T03:11:46;8.80;;;7.83;;
8480;SDS011;4277;51.354;6.740;2023-04-22T03:14:12;10.60;;;8.13;;
8480;SDS011;4277;51.354;6.740;2023-04-22T03:16:38;8.07;;;7.27;;
8480;SDS011;4277;51.354;6.740;2023-04-22T03:19:04;7.73;;;6.90;;
8480;SDS011;4277;51.354;6.740;2023-04-22T03:21:30;7.43;;;6.57;;
8480;SDS011;4277;51.354;6.740;2023-04-22T03:23:56;8.60;;;6.87;;
8480;SDS011;4277;51.354;6.740;2023-04-22T03:26:22;7.63;;;6.83;;
8480;SDS011;4277;51.354;6.740;2023-04-22T03:28:48;7.47;;;6.47;;
8480;SDS011;4277;51.354;6.740;2023-04-22T03:31:14;7.50;;;6.60;;
8480;SDS011;4277;51.354;6.740;2023-04-22T03:33:40;7.53;;;6.73;;
8480;SDS011;4277;51.354;6.740;2023-04-22T03:36:06;6.87;;;6.17;;
8480;SDS011;4277;51.354;6.740;2023-04-22T03:38:32;9.43;;;6.40;;
8480;SDS011;4277;51.354;6.740;2023-04-22T03:40:58;7.40;;;6.70;;
8480;SDS011;4277;51.354;6.740;2023-04-22T03:43:24;8.23;;;6.90;;
8480;SDS011;4277;51.354;6.740;2023-04-22T03:45:50;10.43;;;7.30;;
8480;SDS011;4277;51.354;6.740;2023-04-22T03:48:16;8.93;;;7.20;;
8480;SDS011;4277;51.354;6.740;2023-04-22T03:50:42;8.10;;;7.30;;
8480;SDS011;4277;51.354;6.740;2023-04-22T03:53:08;8.60;;;6.90;;
8480;SDS011;4277;51.354;6.740;2023-04-22T03:55:34;8.03;;;6.73;;
8480;SDS011;4277;51.354;6.740;2023-04-22T03:58:00;7.67;;;6.63;;
8480;SDS011;4277;51.354;6.740;2023-04-22T04:00:26;8.77;;;7.23;;
8480;SDS011;4277;51.354;6.740;2023-04-22T04:02:52;10.33;;;6.67;;
8480;SDS011;4277;51.354;6.740;2023-04-22T04:05:18;6.40;;;5.80;;
8480;SDS011;4277;51.354;6.740;2023-04-22T04:07:44;6.60;;;5.90;;
8480;SDS011;4277;51.354;6.740;2023-04-22T04:10:10;6.27;;;5.67;;
8480;SDS011;4277;51.354;6.740;2023-04-22T04:12:36;8.47;;;5.90;;
8480;SDS011;4277;51.354;6.740;2023-04-22T04:15:02;5.87;;;5.37;;
8480;SDS011;4277;51.354;6.740;2023-04-22T04:17:28;6.47;;;5.83;;
8480;SDS011;4277;51.354;6.740;2023-04-22T04:19:54;5.60;;;5.10;;
8480;SDS011;4277;51.354;6.740;2023-04-22T04:22:20;6.83;;;6.13;;
8480;SDS011;4277;51.354;6.740;2023-04-22T04:24:46;6.70;;;5.93;;
8480;SDS011;4277;51.354;6.740;2023-04-22T04:27:12;6.97;;;5.70;;
8480;SDS011;4277;51.354;6.740;2023-04-22T04:29:39;6.23;;;5.63;;
8480;SDS011;4277;51.354;6.740;2023-04-22T04:32:06;7.73;;;6.30;;
8480;SDS011;4277;51.354;6.740;2023-04-22T04:34:32;7.57;;;6.87;;
8480;SDS011;4277;51.354;6.740;2023-04-22T04:36:59;6.70;;;6.00;;
8480;SDS011;4277;51.354;6.740;2023-04-22T04:39:25;6.80;;;6.07;;
8480;SDS011;4277;51.354;6.740;2023-04-22T04:41:53;5.50;;;5.00;;
8480;SDS011;4277;51.354;6.740;2023-04-22T04:44:19;5.80;;;5.30;;
8480;SDS011;4277;51.354;6.740;2023-04-22T04:46:46;5.63;;;5.13;;
8480;SDS011;4277;51.354;6.740;2023-04-22T04:49:12;5.30;;;4.80;;
8480;SDS011;4277;51.354;6.740;2023-04-22T04:51:38;5.63;;;5.13;;
8480;SDS011;4277;51.354;6.740;2023-04-22T04:54:04;6.00;;;5.40;;
8480;SDS011;4277;51.354;6.740;2023-04-22T04:56:30;6.23;;;5.17;;
8480;SDS011;4277;51.354;6.740;2023-04-22T04:58:56;6.13;;;5.37;;
8480;SDS011;4277;51.354;6.740;2023-04-22T05:01:22;6.67;;;5.70;;
8480;SDS011;4277;51.354;6.740;2023-04-22T05:03:48;5.97;;;5.37;;
8480;SDS011;4277;51.354;6.740;2023-04-22T05:06:14;5.83;;;5.23;;
8480;SDS011;4277;51.354;6.740;2023-04-22T05:08:40;5.80;;;5.30;;
8480;SDS011;4277;51.354;6.740;2023-04-22T05:11:06;7.27;;;5.50;;
8480;SDS011;4277;51.354;6.740;2023-04-22T05:13:32;7.27;;;6.30;;
8480;SDS011;4277;51.354;6.740;2023-04-22T05:15:57;6.83;;;6.17;;
8480;SDS011;4277;51.354;6.740;2023-04-22T05:18:24;6.57;;;5.93;;
8480;SDS011;4277;51.354;6.740;2023-04-22T05:20:50;6.40;;;5.77;;
8480;SDS011;4277;51.354;6.740;2023-04-22T05:23:15;6.17;;;5.57;;
8480;SDS011;4277;51.354;6.740;2023-04-22T05:25:41;6.10;;;5.50;;
8480;SDS011;4277;51.354;6.740;2023-04-22T05:28:07;6.43;;;5.83;;
8480;SDS011;4277;51.354;6.740;2023-04-22T05:30:33;6.23;;;5.67;;
8480;SDS011;4277;51.354;6.740;2023-04-22T05:33:00;7.77;;;6.27;;
8480;SDS011;4277;51.354;6.740;2023-04-22T05:35:26;6.33;;;5.73;;
8480;SDS011;4277;51.354;6.740;2023-04-22T05:37:52;6.40;;;5.20;;
8480;SDS011;4277;51.354;6.740;2023-04-22T05:40:18;6.03;;;5.43;;
8480;SDS011;4277;51.354;6.740;2023-04-22T05:42:43;5.73;;;5.10;;
8480;SDS011;4277;51.354;6.740;2023-04-22T05:45:09;7.33;;;6.10;;
8480;SDS011;4277;51.354;6.740;2023-04-22T05:47:35;5.50;;;5.00;;
8480;SDS011;4277;51.354;6.740;2023-04-22T05:50:01;6.03;;;5.50;;
8480;SDS011;4277;51.354;6.740;2023-04-22T05:52:27;7.43;;;5.13;;
8480;SDS011;4277;51.354;6.740;2023-04-22T05:54:53;5.83;;;5.20;;
8480;SDS011;4277;51.354;6.740;2023-04-22T05:57:19;5.00;;;4.53;;
8480;SDS011;4277;51.354;6.740;2023-04-22T05:59:45;5.00;;;4.50;;
8480;SDS011;4277;51.354;6.740;2023-04-22T06:02:11;4.83;;;4.23;;
8480;SDS011;4277;51.354;6.740;2023-04-22T06:04:37;4.53;;;4.13;;
8480;SDS011;4277;51.354;6.740;2023-04-22T06:07:03;4.27;;;3.97;;
8480;SDS011;4277;51.354;6.740;2023-04-22T06:09:29;4.00;;;3.60;;
8480;SDS011;4277;51.354;6.740;2023-04-22T06:11:55;3.30;;;3.00;;
8480;SDS011;4277;51.354;6.740;2023-04-22T06:14:22;3.47;;;2.70;;
8480;SDS011;4277;51.354;6.740;2023-04-22T06:16:48;4.40;;;3.07;;
8480;SDS011;4277;51.354;6.740;2023-04-22T06:19:17;3.30;;;3.10;;
8480;SDS011;4277;51.354;6.740;2023-04-22T06:21:43;3.27;;;2.97;;
8480;SDS011;4277;51.354;6.740;2023-04-22T06:24:10;3.40;;;2.83;;
8480;SDS011;4277;51.354;6.740;2023-04-22T06:26:36;3.53;;;3.23;;
8480;SDS011;4277;51.354;6.740;2023-04-22T06:29:02;3.80;;;3.17;;
8480;SDS011;4277;51.354;6.740;2023-04-22T06:31:29;4.50;;;3.00;;
8480;SDS011;4277;51.354;6.740;2023-04-22T06:33:55;3.67;;;3.20;;
8480;SDS011;4277;51.354;6.740;2023-04-22T06:36:22;3.80;;;3.10;;
8480;SDS011;4277;51.354;6.740;2023-04-22T06:38:48;3.60;;;3.30;;
8480;SDS011;4277;51.354;6.740;2023-04-22T06:41:13;4.03;;;3.27;;
8480;SDS011;4277;51.354;6.740;2023-04-22T06:43:39;3.23;;;3.00;;
8480;SDS011;4277;51.354;6.740;2023-04-22T06:46:05;5.03;;;3.00;;
8480;SDS011;4277;51.354;6.740;2023-04-22T06:48:31;3.07;;;2.77;;
8480;SDS011;4277;51.354;6.740;2023-04-22T06:50:57;3.63;;;2.87;;
8480;SDS011;4277;51.354;6.740;2023-04-22T06:53:25;2.83;;;2.53;;
8480;SDS011;4277;51.354;6.740;2023-04-22T06:55:51;2.60;;;2.40;;
8480;SDS011;4277;51.354;6.740;2023-04-22T06:58:18;2.77;;;2.53;;
8480;SDS011;4277;51.354;6.740;2023-04-22T07:00:44;4.20;;;2.60;;
8480;SDS011;4277;51.354;6.740;2023-04-22T07:03:10;3.37;;;2.53;;
8480;SDS011;4277;51.354;6.740;2023-04-22T07:05:36;5.03;;;2.40;;
8480;SDS011;4277;51.354;6.740;2023-04-22T07:08:02;3.97;;;2.70;;
8480;SDS011;4277;51.354;6.740;2023-04-22T07:10:27;3.43;;;2.40;;
8480;SDS011;4277;51.354;6.740;2023-04-22T07:12:53;2.97;;;2.30;;
8480;SDS011;4277;51.354;6.740;2023-04-22T07:15:19;4.40;;;2.30;;
8480;SDS011;4277;51.354;6.740;2023-04-22T07:17:44;2.80;;;2.47;;
8480;SDS011;4277;51.354;6.740;2023-04-22T07:20:10;2.87;;;2.50;;
8480;SDS011;4277;51.354;6.740;2023-04-22T07:22:36;4.53;;;2.30;;
8480;SDS011;4277;51.354;6.740;2023-04-22T07:25:01;3.50;;;2.33;;
8480;SDS011;4277;51.354;6.740;2023-04-22T07:27:27;2.30;;;2.10;;
8480;SDS011;4277;51.354;6.740;2023-04-22T07:29:53;2.30;;;2.10;;
8480;SDS011;4277;51.354;6.740;2023-04-22T07:32:18;2.93;;;2.63;;
8480;SDS011;4277;51.354;6.740;2023-04-22T07:34:44;2.17;;;2.00;;
8480;SDS011;4277;51.354;6.740;2023-04-22T07:37:09;2.60;;;2.40;;
8480;SDS011;4277;51.354;6.740;2023-04-22T07:39:35;2.50;;;2.27;;
8480;SDS011;4277;51.354;6.740;2023-04-22T07:42:00;3.60;;;2.90;;
8480;SDS011;4277;51.354;6.740;2023-04-22T07:44:27;3.60;;;2.30;;
8480;SDS011;4277;51.354;6.740;2023-04-22T07:46:53;3.10;;;2.33;;
8480;SDS011;4277;51.354;6.740;2023-04-22T07:49:19;2.50;;;2.30;;
8480;SDS011;4277;51.354;6.740;2023-04-22T07:51:45;3.50;;;2.30;;
8480;SDS011;4277;51.354;6.740;2023-04-22T07:54:10;4.80;;;2.80;;
8480;SDS011;4277;51.354;6.740;2023-04-22T07:56:36;3.37;;;2.13;;
8480;SDS011;4277;51.354;6.740;2023-04-22T07:59:02;2.40;;;2.20;;
8480;SDS011;4277;51.354;6.740;2023-04-22T08:01:27;2.50;;;2.30;;
8480;SDS011;4277;51.354;6.740;2023-04-22T08:03:53;3.37;;;2.40;;
8480;SDS011;4277;51.354;6.740;2023-04-22T08:06:18;4.77;;;2.33;;
8480;SDS011;4277;51.354;6.740;2023-04-22T08:08:44;3.20;;;2.20;;
8480;SDS011;4277;51.354;6.740;2023-04-22T08:11:10;2.70;;;2.50;;
8480;SDS011;4277;51.354;6.740;2023-04-22T08:13:35;3.43;;;2.40;;
8480;SDS011;4277;51.354;6.740;2023-04-22T08:16:01;5.00;;;2.37;;
8480;SDS011;4277;51.354;6.740;2023-04-22T08:18:27;2.87;;;2.40;;
8480;SDS011;4277;51.354;6.740;2023-04-22T08:20:53;3.00;;;2.33;;
8480;SDS011;4277;51.354;6.740;2023-04-22T08:23:19;2.53;;;2.33;;
8480;SDS011;4277;51.354;6.740;2023-04-22T08:25:45;2.60;;;2.40;;
8480;SDS011;4277;51.354;6.740;2023-04-22T08:28:11;3.73;;;2.43;;
8480;SDS011;4277;51.354;6.740;2023-04-22T08:30:37;3.40;;;2.43;;
8480;SDS011;4277;51.354;6.740;2023-04-22T08:33:03;7.50;;;2.23;;
8480;SDS011;4277;51.354;6.740;2023-04-22T08:35:29;4.30;;;2.40;;
8480;SDS011;4277;51.354;6.740;2023-04-22T08:37:55;2.30;;;2.10;;
8480;SDS011;4277;51.354;6.740;2023-04-22T08:40:21;2.40;;;2.20;;
8480;SDS011;4277;51.354;6.740;2023-04-22T08:42:47;4.10;;;2.10;;
8480;SDS011;4277;51.354;6.740;2023-04-22T08:45:16;2.13;;;1.97;;
8480;SDS011;4277;51.354;6.740;2023-04-22T08:47:42;2.27;;;2.07;;
8480;SDS011;4277;51.354;6.740;2023-04-22T08:50:08;5.07;;;2.33;;
8480;SDS011;4277;51.354;6.740;2023-04-22T08:52:35;5.97;;;2.43;;
8480;SDS011;4277;51.354;6.740;2023-04-22T08:55:00;2.20;;;2.00;;
8480;SDS011;4277;51.354;6.740;2023-04-22T08:57:26;4.30;;;2.07;;
8480;SDS011;4277;51.354;6.740;2023-04-22T08:59:53;3.70;;;2.50;;
8480;SDS011;4277;51.354;6.740;2023-04-22T09:02:20;3.50;;;2.43;;
8480;SDS011;4277;51.354;6.740;2023-04-22T09:04:47;3.63;;;2.30;;
8480;SDS011;4277;51.354;6.740;2023-04-22T09:07:18;3.70;;;2.27;;
8480;SDS011;4277;51.354;6.740;2023-04-22T09:09:46;2.57;;;2.10;;
8480;SDS011;4277;51.354;6.740;2023-04-22T09:12:13;4.03;;;2.80;;
8480;SDS011;4277;51.354;6.740;2023-04-22T09:14:39;4.17;;;2.43;;
8480;SDS011;4277;51.354;6.740;2023-04-22T09:17:05;3.33;;;2.20;;
8480;SDS011;4277;51.354;6.740;2023-04-22T09:19:31;2.70;;;2.50;;
8480;SDS011;4277;51.354;6.740;2023-04-22T09:21:57;3.10;;;2.53;;
8480;SDS011;4277;51.354;6.740;2023-04-22T09:24:23;3.27;;;2.43;;
8480;SDS011;4277;51.354;6.740;2023-04-22T09:26:49;2.43;;;2.23;;
8480;SDS011;4277;51.354;6.740;2023-04-22T09:29:15;2.70;;;2.40;;
8480;SDS011;4277;51.354;6.740;2023-04-22T09:31:46;3.42;;;2.20;;
8480;SDS011;4277;51.354;6.740;2023-04-22T09:34:12;2.78;;;2.20;;
8480;SDS011;4277;51.354;6.740;2023-04-22T09:36:38;3.15;;;2.53;;
8480;SDS011;4277;51.354;6.740;2023-04-22T09:39:05;3.22;;;2.42;;
8480;SDS011;4277;51.354;6.740;2023-04-22T09:41:33;3.90;;;2.45;;
8480;SDS011;4277;51.354;6.740;2023-04-22T09:44:00;3.03;;;2.38;;
8480;SDS011;4277;51.354;6.740;2023-04-22T09:46:26;3.63;;;2.35;;
8480;SDS011;4277;51.354;6.740;2023-04-22T09:48:57;3.40;;;2.40;;
8480;SDS011;4277;51.354;6.740;2023-04-22T09:51:23;2.67;;;2.47;;
8480;SDS011;4277;51.354;6.740;2023-04-22T09:54:03;3.28;;;2.50;;
8480;SDS011;4277;51.354;6.740;2023-04-22T09:56:40;3.42;;;2.25;;
8480;SDS011;4277;51.354;6.740;2023-04-22T09:59:06;4.60;;;2.30;;
8480;SDS011;4277;51.354;6.740;2023-04-22T10:01:36;2.33;;;2.15;;
8480;SDS011;4277;51.354;6.740;2023-04-22T10:04:03;5.55;;;2.05;;
8480;SDS011;4277;51.354;6.740;2023-04-22T10:06:29;4.20;;;2.10;;
8480;SDS011;4277;51.354;6.740;2023-04-22T10:08:56;3.33;;;2.30;;
8480;SDS011;4277;51.354;6.740;2023-04-22T10:11:23;2.40;;;2.13;;
8480;SDS011;4277;51.354;6.740;2023-04-22T10:13:49;3.05;;;2.35;;
8480;SDS011;4277;51.354;6.740;2023-04-22T10:16:15;4.95;;;2.22;;
8480;SDS011;4277;51.354;6.740;2023-04-22T10:18:42;2.30;;;2.13;;
8480;SDS011;4277;51.354;6.740;2023-04-22T10:21:09;2.40;;;2.20;;
8480;SDS011;4277;51.354;6.740;2023-04-22T10:23:35;4.50;;;2.28;;
8480;SDS011;4277;51.354;6.740;2023-04-22T10:26:03;2.55;;;2.10;;
8480;SDS011;4277;51.354;6.740;2023-04-22T10:28:29;3.65;;;2.33;;
8480;SDS011;4277;51.354;6.740;2023-04-22T10:30:56;3.40;;;2.40;;
8480;SDS011;4277;51.354;6.740;2023-04-22T10:36:07;2.50;;;2.30;;
8480;SDS011;4277;51.354;6.740;2023-04-22T10:38:34;2.63;;;2.38;;
8480;SDS011;4277;51.354;6.740;2023-04-22T10:41:00;3.58;;;2.42;;
8480;SDS011;4277;51.354;6.740;2023-04-22T10:49:08;3.65;;;2.20;;
8480;SDS011;4277;51.354;6.740;2023-04-22T10:51:44;2.03;;;1.90;;
8480;SDS011;4277;51.354;6.740;2023-04-22T10:59:30;4.20;;;1.90;;
8480;SDS011;4277;51.354;6.740;2023-04-22T11:02:14;2.70;;;2.00;;
8480;SDS011;4277;51.354;6.740;2023-04-22T11:04:41;2.45;;;2.03;;
8480;SDS011;4277;51.354;6.740;2023-04-22T11:09:58;5.85;;;2.30;;
8480;SDS011;4277;51.354;6.740;2023-04-22T11:17:38;2.15;;;1.80;;
8480;SDS011;4277;51.354;6.740;2023-04-22T11:20:05;3.13;;;1.70;;
8480;SDS011;4277;51.354;6.740;2023-04-22T11:22:40;4.88;;;1.83;;
8480;SDS011;4277;51.354;6.740;2023-04-22T11:25:06;3.92;;;2.13;;
8480;SDS011;4277;51.354;6.740;2023-04-22T11:27:36;3.92;;;2.10;;
8480;SDS011;4277;51.354;6.740;2023-04-22T11:30:12;3.15;;;2.28;;
8480;SDS011;4277;51.354;6.740;2023-04-22T11:32:40;4.32;;;2.35;;
8480;SDS011;4277;51.354;6.740;2023-04-22T11:35:49;2.70;;;2.05;;
8480;SDS011;4277;51.354;6.740;2023-04-22T11:37:57;2.78;;;1.95;;
8480;SDS011;4277;51.354;6.740;2023-04-22T11:40:25;3.53;;;2.13;;
8480;SDS011;4277;51.354;6.740;2023-04-22T11:42:51;2.38;;;2.13;;
8480;SDS011;4277;51.354;6.740;2023-04-22T11:45:18;4.70;;;2.40;;
8480;SDS011;4277;51.354;6.740;2023-04-22T11:47:44;4.55;;;2.20;;
8480;SDS011;4277;51.354;6.740;2023-04-22T11:50:11;2.33;;;2.13;;
8480;SDS011;4277;51.354;6.740;2023-04-22T11:55:13;2.35;;;2.10;;
8480;SDS011;4277;51.354;6.740;2023-04-22T11:57:38;3.05;;;2.10;;
8480;SDS011;4277;51.354;6.740;2023-04-22T12:00:05;3.97;;;2.30;;
8480;SDS011;4277;51.354;6.740;2023-04-22T12:02:31;5.93;;;2.55;;
8480;SDS011;4277;51.354;6.740;2023-04-22T12:04:58;3.20;;;2.30;;
8480;SDS011;4277;51.354;6.740;2023-04-22T12:07:27;3.03;;;2.30;;
8480;SDS011;4277;51.354;6.740;2023-04-22T12:09:53;3.78;;;2.47;;
8480;SDS011;4277;51.354;6.740;2023-04-22T12:12:23;3.70;;;2.10;;
8480;SDS011;4277;51.354;6.740;2023-04-22T12:14:49;2.40;;;2.00;;
8480;SDS011;4277;51.354;6.740;2023-04-22T12:17:15;4.45;;;2.30;;
8480;SDS011;4277;51.354;6.740;2023-04-22T12:19:46;3.45;;;2.10;;
8480;SDS011;4277;51.354;6.740;2023-04-22T12:22:22;2.45;;;2.13;;
8480;SDS011;4277;51.354;6.740;2023-04-22T12:24:48;4.78;;;2.22;;
8480;SDS011;4277;51.354;6.740;2023-04-22T12:27:14;4.53;;;2.22;;
8480;SDS011;4277;51.354;6.740;2023-04-22T12:29:42;2.70;;;2.00;;
8480;SDS011;4277;51.354;6.740;2023-04-22T12:32:15;2.95;;;2.00;;
8480;SDS011;4277;51.354;6.740;2023-04-22T12:34:40;4.53;;;2.47;;
8480;SDS011;4277;51.354;6.740;2023-04-22T12:37:06;4.53;;;2.20;;
8480;SDS011;4277;51.354;6.740;2023-04-22T12:39:32;4.93;;;2.40;;
8480;SDS011;4277;51.354;6.740;2023-04-22T12:41:58;3.33;;;2.53;;
8480;SDS011;4277;51.354;6.740;2023-04-22T12:44:24;4.75;;;2.50;;
8480;SDS011;4277;51.354;6.740;2023-04-22T12:46:50;4.65;;;2.17;;
8480;SDS011;4277;51.354;6.740;2023-04-22T12:49:16;3.45;;;2.20;;
8480;SDS011;4277;51.354;6.740;2023-04-22T12:51:42;5.25;;;2.47;;
8480;SDS011;4277;51.354;6.740;2023-04-22T12:54:08;3.55;;;2.30;;
8480;SDS011;4277;51.354;6.740;2023-04-22T12:56:34;2.60;;;2.17;;
8480;SDS011;4277;51.354;6.740;2023-04-22T12:59:00;5.05;;;2.38;;
8480;SDS011;4277;51.354;6.740;2023-04-22T13:01:27;2.55;;;2.35;;
8480;SDS011;4277;51.354;6.740;2023-04-22T13:03:53;3.15;;;2.30;;
8480;SDS011;4277;51.354;6.740;2023-04-22T13:06:19;4.78;;;2.42;;
8480;SDS011;4277;51.354;6.740;2023-04-22T13:08:45;2.50;;;2.13;;
8480;SDS011;4277;51.354;6.740;2023-04-22T13:11:11;4.70;;;2.50;;
8480;SDS011;4277;51.354;6.740;2023-04-22T13:13:37;4.45;;;2.50;;
8480;SDS011;4277;51.354;6.740;2023-04-22T13:16:03;3.05;;;2.58;;
8480;SDS011;4277;51.354;6.740;2023-04-22T13:18:30;2.65;;;2.33;;
8480;SDS011;4277;51.354;6.740;2023-04-22T13:20:56;3.10;;;2.35;;
8480;SDS011;4277;51.354;6.740;2023-04-22T13:23:22;3.03;;;2.28;;
8480;SDS011;4277;51.354;6.740;2023-04-22T13:25:49;4.45;;;2.30;;
8480;SDS011;4277;51.354;6.740;2023-04-22T13:28:15;3.50;;;2.60;;
8480;SDS011;4277;51.354;6.740;2023-04-22T13:30:41;4.13;;;2.67;;
8480;SDS011;4277;51.354;6.740;2023-04-22T13:33:07;3.80;;;2.40;;
8480;SDS011;4277;51.354;6.740;2023-04-22T13:35:33;3.88;;;2.70;;
8480;SDS011;4277;51.354;6.740;2023-04-22T13:38:00;6.40;;;3.15;;
8480;SDS011;4277;51.354;6.740;2023-04-22T13:40:26;5.95;;;3.03;;
8480;SDS011;4277;51.354;6.740;2023-04-22T13:42:52;4.50;;;2.83;;
8480;SDS011;4277;51.354;6.740;2023-04-22T13:45:18;5.05;;;3.10;;
8480;SDS011;4277;51.354;6.740;2023-04-22T13:47:44;4.88;;;2.70;;
8480;SDS011;4277;51.354;6.740;2023-04-22T13:50:10;2.67;;;2.42;;
8480;SDS011;4277;51.354;6.740;2023-04-22T13:52:36;6.45;;;2.50;;
8480;SDS011;4277;51.354;6.740;2023-04-22T13:55:02;2.55;;;2.35;;
8480;SDS011;4277;51.354;6.740;2023-04-22T13:57:28;4.75;;;2.47;;
8480;SDS011;4277;51.354;6.740;2023-04-22T13:59:54;3.38;;;2.35;;
8480;SDS011;4277;51.354;6.740;2023-04-22T14:02:20;2.92;;;2.20;;
8480;SDS011;4277;51.354;6.740;2023-04-22T14:04:46;2.95;;;2.30;;
8480;SDS011;4277;51.354;6.740;2023-04-22T14:07:12;2.70;;;2.50;;
8480;SDS011;4277;51.354;6.740;2023-04-22T14:09:38;2.92;;;2.33;;
8480;SDS011;4277;51.354;6.740;2023-04-22T14:12:05;3.97;;;2.60;;
8480;SDS011;4277;51.354;6.740;2023-04-22T14:14:31;2.65;;;2.30;;
8480;SDS011;4277;51.354;6.740;2023-04-22T14:16:57;5.38;;;2.45;;
8480;SDS011;4277;51.354;6.740;2023-04-22T14:19:23;5.22;;;2.70;;
8480;SDS011;4277;51.354;6.740;2023-04-22T14:21:50;2.80;;;2.50;;
8480;SDS011;4277;51.354;6.740;2023-04-22T14:24:16;4.38;;;2.70;;
8480;SDS011;4277;51.354;6.740;2023-04-22T14:26:43;3.95;;;2.90;;
8480;SDS011;4277;51.354;6.740;2023-04-22T14:29:09;3.47;;;2.65;;
8480;SDS011;4277;51.354;6.740;2023-04-22T14:31:35;2.97;;;2.50;;
8480;SDS011;4277;51.354;6.740;2023-04-22T14:34:01;3.67;;;2.70;;
8480;SDS011;4277;51.354;6.740;2023-04-22T14:36:27;4.82;;;3.00;;
8480;SDS011;4277;51.354;6.740;2023-04-22T14:38:53;3.65;;;2.78;;
8480;SDS011;4277;51.354;6.740;2023-04-22T14:41:19;4.05;;;2.78;;
8480;SDS011;4277;51.354;6.740;2023-04-22T14:43:45;5.07;;;3.47;;
8480;SDS011;4277;51.354;6.740;2023-04-22T14:46:11;4.32;;;3.03;;
8480;SDS011;4277;51.354;6.740;2023-04-22T14:48:37;5.35;;;3.67;;
8480;SDS011;4277;51.354;6.740;2023-04-22T14:51:03;6.30;;;3.78;;
8480;SDS011;4277;51.354;6.740;2023-04-22T14:53:30;5.22;;;2.70;;
8480;SDS011;4277;51.354;6.740;2023-04-22T14:55:56;4.28;;;3.13;;
8480;SDS011;4277;51.354;6.740;2023-04-22T14:58:22;3.97;;;3.33;;
8480;SDS011;4277;51.354;6.740;2023-04-22T15:00:48;3.88;;;3.20;;
8480;SDS011;4277;51.354;6.740;2023-04-22T15:03:14;4.63;;;3.10;;
8480;SDS011;4277;51.354;6.740;2023-04-22T15:05:41;4.85;;;3.58;;
8480;SDS011;4277;51.354;6.740;2023-04-22T15:08:07;4.90;;;3.72;;
8480;SDS011;4277;51.354;6.740;2023-04-22T15:10:33;4.15;;;3.75;;
8480;SDS011;4277;51.354;6.740;2023-04-22T15:12:59;5.47;;;3.50;;
8480;SDS011;4277;51.354;6.740;2023-04-22T15:15:25;3.50;;;3.10;;
8480;SDS011;4277;51.354;6.740;2023-04-22T15:17:54;4.38;;;3.30;;
8480;SDS011;4277;51.354;6.740;2023-04-22T15:20:20;3.08;;;2.78;;
8480;SDS011;4277;51.354;6.740;2023-04-22T15:22:47;3.67;;;2.70;;
8480;SDS011;4277;51.354;6.740;2023-04-22T15:25:13;3.53;;;2.85;;
8480;SDS011;4277;51.354;6.740;2023-04-22T15:27:39;4.95;;;3.90;;
8480;SDS011;4277;51.354;6.740;2023-04-22T15:30:05;4.72;;;4.05;;
8480;SDS011;4277;51.354;6.740;2023-04-22T15:32:31;4.75;;;2.85;;
8480;SDS011;4277;51.354;6.740;2023-04-22T15:34:57;5.18;;;3.92;;